createdAt,value
2023-05-05T00:00:14.092Z,49.25
2023-05-05T00:02:44.883Z,49.25
2023-05-05T00:05:15.419Z,47.40
2023-05-05T00:07:45.957Z,48.33
2023-05-05T00:10:16.481Z,48.46
2023-05-05T00:12:48.925Z,49.00
2023-05-05T00:15:19.897Z,48.77
2023-05-05T00:17:50.320Z,49.44
2023-05-05T00:20:20.890Z,49.59
2023-05-05T00:22:51.487Z,47.40
2023-05-05T00:25:21.872Z,47.25
2023-05-05T00:27:53.969Z,47.38
2023-05-05T00:30:25.080Z,46.82
2023-05-05T00:32:56.284Z,48.01
2023-05-05T00:35:27.766Z,48.23
2023-05-05T00:37:58.599Z,47.57
2023-05-05T00:40:29.188Z,45.80
2023-05-05T00:43:01.893Z,47.09
2023-05-05T00:45:32.935Z,45.76
2023-05-05T00:48:04.092Z,46.11
2023-05-05T00:50:34.755Z,45.49
2023-05-05T00:53:06.225Z,44.15
2023-05-05T00:55:37.411Z,45.42
2023-05-05T00:58:09.401Z,45.54
2023-05-05T01:00:39.906Z,43.42
2023-05-05T01:03:10.666Z,44.14
2023-05-05T01:05:58.554Z,44.99
2023-05-05T01:08:41.724Z,44.75
2023-05-05T01:26:03.411Z,35.05
2023-05-05T01:28:56.053Z,36.32
2023-05-05T01:31:45.382Z,36.33
2023-05-05T01:34:19.410Z,36.75
2023-05-05T01:36:58.058Z,36.97
2023-05-05T01:39:34.172Z,38.09
2023-05-05T01:42:08.805Z,39.78
2023-05-05T01:44:40.511Z,39.94
2023-05-05T01:47:13.913Z,38.21
2023-05-05T01:49:47.449Z,39.13
2023-05-05T01:52:19.138Z,38.80
2023-05-05T01:54:50.709Z,39.40
2023-05-05T01:57:22.822Z,37.61
2023-05-05T01:59:55.697Z,38.15
2023-05-05T02:02:31.041Z,36.98
2023-05-05T02:05:02.860Z,37.76
2023-05-05T02:07:35.992Z,36.69
2023-05-05T02:10:07.616Z,37.08
2023-05-05T02:12:40.378Z,38.66
2023-05-05T02:15:12.987Z,38.03
2023-05-05T02:17:47.292Z,38.29
2023-05-05T02:20:18.986Z,37.12
2023-05-05T02:22:49.612Z,38.21
2023-05-05T02:25:20.562Z,37.41
2023-05-05T02:27:53.561Z,38.54
2023-05-05T02:30:25.169Z,37.40
2023-05-05T02:33:02.824Z,38.58
2023-05-05T02:35:38.325Z,37.55
2023-05-05T02:38:12.416Z,36.87
2023-05-05T02:40:46.631Z,36.40
2023-05-05T02:43:21.073Z,36.47
2023-05-05T02:45:51.726Z,36.03
2023-05-05T02:48:24.044Z,37.35
2023-05-05T02:50:54.564Z,37.21
2023-05-05T02:53:29.297Z,37.02
2023-05-05T02:56:08.623Z,36.78
2023-05-05T02:58:45.315Z,37.20
2023-05-05T03:01:29.369Z,36.51
2023-05-05T03:04:09.185Z,35.61
2023-05-05T03:06:43.642Z,35.91
2023-05-05T03:09:18.694Z,35.28
2023-05-05T03:11:52.768Z,35.54
2023-05-05T03:14:24.440Z,36.59
2023-05-05T03:16:57.958Z,35.63
2023-05-05T03:19:31.272Z,36.46
2023-05-05T03:22:02.364Z,37.06
2023-05-05T03:24:34.351Z,35.94
2023-05-05T03:27:06.059Z,35.91
2023-05-05T03:29:36.515Z,35.94
2023-05-05T03:32:07.391Z,36.36
2023-05-05T03:34:39.473Z,36.93
2023-05-05T03:37:09.943Z,35.59
2023-05-05T03:39:40.381Z,35.36
2023-05-05T03:42:11.013Z,36.18
2023-05-05T03:44:41.519Z,35.41
2023-05-05T03:47:12.036Z,35.32
2023-05-05T03:49:44.072Z,36.66
2023-05-05T03:52:15.147Z,35.75
2023-05-05T03:54:46.879Z,36.45
2023-05-05T03:57:17.553Z,35.88
2023-05-05T03:59:47.996Z,35.99
2023-05-05T04:02:19.190Z,35.83
2023-05-05T04:04:51.290Z,35.81
2023-05-05T04:07:23.575Z,36.34
2023-05-05T04:09:54.143Z,35.74
2023-05-05T04:12:24.674Z,36.15
2023-05-05T04:14:55.093Z,34.21
2023-05-05T04:17:25.784Z,35.10
2023-05-05T04:19:57.942Z,36.00
2023-05-05T04:22:28.552Z,36.64
2023-05-05T04:24:59.082Z,36.84
2023-05-05T04:27:30.768Z,36.67
2023-05-05T04:30:01.482Z,36.90
2023-05-05T04:32:32.096Z,36.00
2023-05-05T04:35:04.557Z,36.39
2023-05-05T04:37:35.059Z,36.68
2023-05-05T04:40:05.617Z,36.73
2023-05-05T04:42:36.199Z,36.75
2023-05-05T04:45:07.679Z,36.05
2023-05-05T04:47:40.847Z,35.84
2023-05-05T04:50:16.512Z,37.40
2023-05-05T04:52:47.040Z,37.62
2023-05-05T04:55:17.610Z,36.46
2023-05-05T04:57:48.164Z,36.61
2023-05-05T05:00:19.330Z,36.30
2023-05-05T05:02:49.936Z,36.79
2023-05-05T05:05:22.421Z,36.36
2023-05-05T05:07:53.047Z,36.66
2023-05-05T05:10:23.673Z,37.94
2023-05-05T05:12:54.305Z,37.64
2023-05-05T05:15:25.229Z,37.13
2023-05-05T05:17:55.818Z,36.94
2023-05-05T05:20:28.144Z,37.21
2023-05-05T05:22:59.152Z,37.70
2023-05-05T05:25:30.105Z,38.40
2023-05-05T05:28:08.960Z,38.20
2023-05-05T05:30:40.918Z,38.51
2023-05-05T05:33:11.496Z,37.77
2023-05-05T05:35:43.657Z,37.62
2023-05-05T05:38:14.120Z,37.84
2023-05-05T05:40:44.842Z,37.01
2023-05-05T05:43:15.370Z,36.83
2023-05-05T05:45:45.918Z,37.26
2023-05-05T05:48:16.622Z,36.98
2023-05-05T05:50:48.825Z,38.10
2023-05-05T05:53:19.475Z,36.90
2023-05-05T05:55:49.960Z,36.86
2023-05-05T05:58:20.466Z,36.94
2023-05-05T06:00:51.987Z,36.18
2023-05-05T06:03:22.703Z,37.96
2023-05-05T06:05:54.888Z,36.55
2023-05-05T06:08:25.325Z,36.16
2023-05-05T06:10:56.437Z,36.65
2023-05-05T06:13:27.474Z,36.73
2023-05-05T06:15:58.103Z,37.22
2023-05-05T06:18:28.753Z,36.54
2023-05-05T06:21:01.222Z,36.87
2023-05-05T06:23:31.807Z,36.55
2023-05-05T06:26:02.315Z,35.98
2023-05-05T06:28:32.963Z,36.22
2023-05-05T06:31:03.656Z,36.14
2023-05-05T06:33:34.379Z,35.29
2023-05-05T06:36:09.790Z,36.42
2023-05-05T06:38:40.372Z,35.14
2023-05-05T06:41:10.937Z,35.75
2023-05-05T06:43:44.585Z,35.75
2023-05-05T06:46:15.110Z,35.86
2023-05-05T06:48:45.604Z,35.25
2023-05-05T06:51:17.882Z,35.69
2023-05-05T06:53:48.420Z,36.77
2023-05-05T06:56:18.887Z,35.72
2023-05-05T06:58:49.530Z,36.19
2023-05-05T07:01:20.264Z,35.95
2023-05-05T07:03:50.911Z,36.19
2023-05-05T07:06:23.140Z,36.74
2023-05-05T07:08:53.571Z,37.15
2023-05-05T07:11:24.108Z,36.66
2023-05-05T07:13:59.319Z,37.19
2023-05-05T07:16:30.337Z,37.13
2023-05-05T07:19:01.632Z,36.72
2023-05-05T07:21:33.985Z,37.52
2023-05-05T07:24:04.911Z,37.33
2023-05-05T07:26:35.464Z,36.97
2023-05-05T07:29:08.014Z,37.47
2023-05-05T07:31:38.462Z,37.27
2023-05-05T07:34:08.930Z,37.80
2023-05-05T07:36:40.937Z,37.90
2023-05-05T07:39:11.337Z,38.46
2023-05-05T07:41:41.882Z,38.45
2023-05-05T07:44:12.332Z,38.42
2023-05-05T07:46:42.721Z,38.39
2023-05-05T07:49:13.239Z,39.02
2023-05-05T07:51:45.736Z,40.03
2023-05-05T07:54:16.193Z,40.19
2023-05-05T07:56:46.546Z,40.67
2023-05-05T07:59:17.036Z,41.55
2023-05-05T08:01:47.392Z,41.53
2023-05-05T08:04:17.833Z,42.37
2023-05-05T08:06:52.757Z,42.63
2023-05-05T08:09:23.189Z,43.11
2023-05-05T08:11:53.519Z,43.50
2023-05-05T08:14:24.078Z,43.42
2023-05-05T08:16:54.460Z,44.01
2023-05-05T08:19:29.276Z,43.87
2023-05-05T08:22:01.968Z,44.15
2023-05-05T08:24:32.597Z,44.60
2023-05-05T08:27:03.057Z,45.26
2023-05-05T08:29:33.498Z,45.16
2023-05-05T08:32:04.180Z,45.95
2023-05-05T08:34:34.625Z,46.26
2023-05-05T08:37:06.650Z,46.19
2023-05-05T08:39:37.140Z,46.58
2023-05-05T08:42:07.730Z,46.57
2023-05-05T08:44:38.202Z,46.76
2023-05-05T08:47:08.859Z,46.67
2023-05-05T08:49:45.481Z,47.20
2023-05-05T08:52:20.845Z,47.22
2023-05-05T08:54:56.008Z,47.07
2023-05-05T08:57:35.100Z,47.12
2023-05-05T09:00:27.715Z,46.44
2023-05-05T09:03:02.039Z,46.26
2023-05-05T09:05:33.629Z,46.37
2023-05-05T09:08:07.627Z,46.63
2023-05-05T09:10:39.418Z,47.28
2023-05-05T09:13:30.368Z,47.48
2023-05-05T09:16:01.073Z,47.90
2023-05-05T09:18:33.014Z,48.54
2023-05-05T09:21:09.323Z,48.52
2023-05-05T09:23:41.331Z,49.60
2023-05-05T09:26:11.823Z,50.45
2023-05-05T09:28:53.934Z,51.34
2023-05-05T09:31:27.031Z,51.32
2023-05-05T09:34:04.636Z,51.97
2023-05-05T09:36:45.657Z,51.91
2023-05-05T09:39:19.618Z,52.70
2023-05-05T09:41:52.309Z,52.49
2023-05-05T09:44:36.336Z,52.23
2023-05-05T09:47:15.071Z,52.39
2023-05-05T09:50:00.973Z,52.68
2023-05-05T09:52:32.858Z,52.55
2023-05-05T09:55:04.937Z,52.63
2023-05-05T09:57:36.697Z,52.25
2023-05-05T10:00:08.234Z,52.84
2023-05-05T10:02:40.853Z,52.31
2023-05-05T10:05:13.484Z,52.16
2023-05-05T10:07:45.153Z,52.55
2023-05-05T10:10:20.927Z,52.65
2023-05-05T10:12:54.174Z,52.95
2023-05-05T10:15:25.397Z,53.08
2023-05-05T10:18:06.737Z,52.49
2023-05-05T10:20:39.373Z,53.18
2023-05-05T10:23:12.995Z,53.55
2023-05-05T10:25:52.200Z,52.37
2023-05-05T10:28:31.542Z,52.62
2023-05-05T10:31:12.843Z,52.73
2023-05-05T10:34:02.823Z,52.50
2023-05-05T10:36:34.275Z,53.67
2023-05-05T10:39:08.749Z,53.16
2023-05-05T10:41:42.806Z,53.06
2023-05-05T10:44:14.880Z,52.10
2023-05-05T10:46:46.516Z,52.64
2023-05-05T10:49:27.892Z,52.61
2023-05-05T10:52:05.783Z,52.80
2023-05-05T10:54:42.426Z,53.47
2023-05-05T10:57:18.376Z,53.22
2023-05-05T10:59:48.908Z,53.29
2023-05-05T11:02:27.557Z,53.32
2023-05-05T11:05:18.664Z,53.81
2023-05-05T11:07:50.228Z,53.73
2023-05-05T11:10:23.910Z,53.86
2023-05-05T11:13:23.681Z,53.27
2023-05-05T11:15:54.985Z,53.97
2023-05-05T11:18:36.784Z,53.95
2023-05-05T11:21:22.521Z,54.14
2023-05-05T11:23:56.663Z,54.40
2023-05-05T11:26:54.727Z,53.89
2023-05-05T11:29:26.857Z,54.11
2023-05-05T11:32:16.488Z,53.57
2023-05-05T11:34:55.920Z,54.16
2023-05-05T11:37:30.694Z,54.15
2023-05-05T11:40:14.698Z,54.23
2023-05-05T11:42:45.208Z,53.84
2023-05-05T11:45:27.600Z,53.82
2023-05-05T11:48:29.071Z,54.22
2023-05-05T11:50:59.573Z,55.44
2023-05-05T11:53:33.969Z,55.58
2023-05-05T11:56:19.610Z,55.33
2023-05-05T11:59:07.320Z,55.68
2023-05-05T12:01:43.328Z,55.03
2023-05-05T12:04:15.702Z,55.32
2023-05-05T12:06:48.001Z,55.85
2023-05-05T12:09:21.534Z,55.67
2023-05-05T12:11:53.145Z,55.24
2023-05-05T12:14:25.043Z,55.25
2023-05-05T12:17:02.179Z,55.16
2023-05-05T12:19:34.225Z,54.52
2023-05-05T12:22:05.155Z,55.30
2023-05-05T12:24:35.782Z,55.67
2023-05-05T12:27:12.062Z,56.13
2023-05-05T12:29:43.405Z,56.10
2023-05-05T12:32:24.988Z,57.14
2023-05-05T12:34:58.116Z,56.84
2023-05-05T12:37:30.401Z,56.97
2023-05-05T12:40:01.394Z,56.72
2023-05-05T12:42:33.188Z,57.38
2023-05-05T12:45:03.780Z,57.74
2023-05-05T12:47:37.804Z,58.21
2023-05-05T12:50:09.110Z,58.95
2023-05-05T12:52:47.025Z,59.50
2023-05-05T12:55:17.533Z,59.10
2023-05-05T12:58:05.308Z,59.32
2023-05-05T13:00:36.157Z,59.35
2023-05-05T13:03:08.538Z,59.80
2023-05-05T13:05:40.352Z,59.87
2023-05-05T13:08:10.976Z,59.86
2023-05-05T13:10:44.113Z,60.31
2023-05-05T13:13:15.857Z,60.32
2023-05-05T13:15:46.529Z,60.59
2023-05-05T13:18:18.969Z,60.63
2023-05-05T13:20:49.635Z,60.34
2023-05-05T13:23:23.012Z,60.19
2023-05-05T13:25:54.658Z,60.85
2023-05-05T13:28:25.608Z,60.68
2023-05-05T13:31:00.339Z,60.36
2023-05-05T13:33:33.222Z,60.31
2023-05-05T13:36:04.127Z,60.33
2023-05-05T13:38:34.877Z,60.48
2023-05-05T13:41:05.664Z,60.81
2023-05-05T13:43:37.247Z,60.98
2023-05-05T13:46:19.237Z,61.02
2023-05-05T13:48:56.003Z,61.64
2023-05-05T13:51:27.113Z,62.13
2023-05-05T13:53:57.818Z,62.30
2023-05-05T13:56:28.654Z,62.81
2023-05-05T13:58:59.234Z,63.49
2023-05-05T14:01:30.013Z,63.46
2023-05-05T14:04:08.260Z,63.92
2023-05-05T14:06:39.866Z,64.09
2023-05-05T14:09:12.062Z,64.54
2023-05-05T14:11:42.678Z,65.08
2023-05-05T14:14:13.947Z,65.49
2023-05-05T14:16:50.258Z,65.58
2023-05-05T14:19:23.102Z,65.98
2023-05-05T14:21:54.036Z,66.26
2023-05-05T14:24:27.548Z,66.34
2023-05-05T14:27:01.452Z,65.88
2023-05-05T14:29:33.038Z,66.50
2023-05-05T14:32:04.420Z,67.17
2023-05-05T14:34:39.582Z,67.58
2023-05-05T14:37:10.550Z,68.28
2023-05-05T14:39:41.165Z,68.48
2023-05-05T14:42:11.820Z,68.06
2023-05-05T14:44:42.366Z,68.69
2023-05-05T14:47:14.587Z,68.98
2023-05-05T14:49:47.009Z,69.04
2023-05-05T14:52:17.907Z,69.48
2023-05-05T14:54:48.708Z,69.73
2023-05-05T14:57:19.380Z,69.81
2023-05-05T14:59:52.778Z,69.64
2023-05-05T15:02:23.444Z,70.92
2023-05-05T15:04:55.684Z,72.04
2023-05-05T15:07:29.224Z,72.64
2023-05-05T15:09:59.745Z,73.33
2023-05-05T15:12:31.560Z,73.57
2023-05-05T15:15:05.190Z,73.70
2023-05-05T15:17:36.148Z,74.22
2023-05-05T15:20:10.371Z,75.01
2023-05-05T15:22:43.568Z,75.45
2023-05-05T15:25:15.843Z,75.72
2023-05-05T15:27:47.930Z,75.59
2023-05-05T15:30:18.930Z,75.00
2023-05-05T15:32:49.709Z,74.43
2023-05-05T15:35:22.483Z,74.05
2023-05-05T15:37:53.076Z,74.52
2023-05-05T15:40:23.834Z,75.35
2023-05-05T15:42:55.222Z,76.03
2023-05-05T15:45:29.325Z,76.37
2023-05-05T15:47:59.832Z,76.49
2023-05-05T15:50:32.040Z,77.12
2023-05-05T15:53:02.932Z,77.29
2023-05-05T15:55:34.085Z,77.44
2023-05-05T15:58:04.865Z,77.28
2023-05-05T16:00:35.729Z,77.98
2023-05-05T16:03:07.479Z,78.08
2023-05-05T16:05:40.093Z,78.30
2023-05-05T16:08:11.836Z,78.79
2023-05-05T16:10:42.679Z,78.71
2023-05-05T16:13:14.214Z,78.85
2023-05-05T16:15:45.550Z,78.14
2023-05-05T16:18:16.149Z,78.60
2023-05-05T16:20:48.862Z,78.23
2023-05-05T16:23:19.653Z,77.96
2023-05-05T16:25:50.299Z,77.58
2023-05-05T16:28:20.973Z,77.44
2023-05-05T16:30:51.641Z,77.54
2023-05-05T16:33:22.289Z,77.22
2023-05-05T16:35:54.549Z,76.60
2023-05-05T16:38:25.301Z,76.20
2023-05-05T16:40:56.221Z,76.06
2023-05-05T16:43:27.224Z,75.64
2023-05-05T16:45:57.873Z,75.41
2023-05-05T16:48:28.682Z,75.18
2023-05-05T16:51:02.173Z,75.71
2023-05-05T16:53:35.707Z,76.09
2023-05-05T16:56:06.502Z,75.97
2023-05-05T16:58:37.165Z,77.01
2023-05-05T17:01:07.777Z,77.77
2023-05-05T17:03:39.049Z,77.69
2023-05-05T17:06:14.143Z,77.35
2023-05-05T17:08:45.133Z,77.02
2023-05-05T17:11:16.212Z,77.27
2023-05-05T17:13:46.838Z,77.34
2023-05-05T17:16:17.717Z,77.35
2023-05-05T17:18:48.376Z,77.42
2023-05-05T17:21:21.716Z,77.82
2023-05-05T17:23:52.582Z,77.94
2023-05-05T17:26:26.173Z,77.65
2023-05-05T17:28:56.831Z,77.51
2023-05-05T17:31:28.951Z,78.10
2023-05-05T17:33:59.494Z,78.25
2023-05-05T17:36:32.131Z,78.83
2023-05-05T17:39:02.829Z,79.40
2023-05-05T17:41:33.402Z,79.30
2023-05-05T17:44:03.992Z,78.53
2023-05-05T17:46:35.085Z,78.47
2023-05-05T17:49:05.717Z,78.07
2023-05-05T17:51:38.042Z,78.26
2023-05-05T17:54:08.929Z,78.29
2023-05-05T17:56:41.244Z,78.42
2023-05-05T17:59:11.805Z,79.11
2023-05-05T18:01:42.426Z,79.61
2023-05-05T18:04:13.054Z,80.36
2023-05-05T18:06:45.241Z,80.35
2023-05-05T18:09:17.485Z,79.87
2023-05-05T18:11:48.785Z,80.65
2023-05-05T18:14:20.342Z,81.28
2023-05-05T18:16:53.338Z,81.75
2023-05-05T18:19:25.032Z,81.74
2023-05-05T18:21:58.282Z,81.89
2023-05-05T18:24:28.987Z,82.73
2023-05-05T18:26:59.531Z,82.84
2023-05-05T18:29:32.736Z,82.76
2023-05-05T18:32:03.384Z,82.50
2023-05-05T18:34:33.977Z,82.65
2023-05-05T18:37:07.051Z,82.77
2023-05-05T18:39:37.714Z,83.41
2023-05-05T18:42:08.838Z,83.43
2023-05-05T18:44:39.384Z,83.18
2023-05-05T18:47:10.024Z,82.42
2023-05-05T18:49:40.636Z,82.78
2023-05-05T18:52:12.804Z,83.21
2023-05-05T18:54:43.399Z,83.19
2023-05-05T18:57:13.983Z,82.93
2023-05-05T18:59:44.591Z,82.48
2023-05-05T19:02:14.980Z,82.53
2023-05-05T19:04:45.429Z,82.55
2023-05-05T19:07:27.901Z,82.14
2023-05-05T19:10:04.673Z,81.79
2023-05-05T19:12:35.246Z,81.73
2023-05-05T19:15:05.654Z,81.34
2023-05-05T19:17:36.310Z,82.03
2023-05-05T19:20:07.229Z,82.26
2023-05-05T19:22:39.336Z,82.78
2023-05-05T19:25:10.476Z,83.42
2023-05-05T19:27:41.169Z,83.26
2023-05-05T19:30:12.795Z,83.38
2023-05-05T19:32:43.346Z,83.33
2023-05-05T19:35:13.839Z,83.23
2023-05-05T19:37:45.885Z,82.81
2023-05-05T19:40:16.610Z,83.45
2023-05-05T19:42:47.074Z,83.39
2023-05-05T19:45:17.640Z,83.76
2023-05-05T19:47:48.346Z,84.00
2023-05-05T19:50:18.790Z,84.38
2023-05-05T19:52:50.855Z,84.81
2023-05-05T19:55:22.564Z,84.67
2023-05-05T19:57:52.884Z,84.67
2023-05-05T20:00:23.567Z,84.60
2023-05-05T20:02:54.014Z,84.85
2023-05-05T20:05:24.639Z,84.30
2023-05-05T20:07:56.635Z,84.97
2023-05-05T20:10:27.584Z,85.42
2023-05-05T20:12:58.158Z,86.28
2023-05-05T20:15:28.887Z,86.26
2023-05-05T20:17:59.663Z,85.82
2023-05-05T20:20:30.082Z,84.93
2023-05-05T20:23:02.230Z,83.46
2023-05-05T20:25:33.854Z,83.47
2023-05-05T20:28:04.183Z,82.67
2023-05-05T20:30:34.576Z,81.87
2023-05-05T20:33:05.313Z,82.31
2023-05-05T20:35:36.070Z,83.00
2023-05-05T20:38:08.220Z,83.07
2023-05-05T20:40:39.007Z,83.28
2023-05-05T20:43:09.569Z,81.92
2023-05-05T20:45:40.124Z,82.21
2023-05-05T20:48:13.602Z,81.58
2023-05-05T20:50:44.521Z,81.05
2023-05-05T20:53:16.963Z,80.34
2023-05-05T20:55:47.970Z,79.77
2023-05-05T20:58:18.485Z,79.95
2023-05-05T21:00:49.138Z,79.61
2023-05-05T21:03:19.734Z,79.09
2023-05-05T21:05:50.737Z,79.05
2023-05-05T21:08:22.827Z,78.50
2023-05-05T21:10:53.328Z,77.14
2023-05-05T21:13:23.939Z,77.31
2023-05-05T21:15:54.453Z,78.31
2023-05-05T21:18:26.525Z,76.79
2023-05-05T21:20:57.037Z,76.10
2023-05-05T21:23:29.228Z,76.33
2023-05-05T21:25:59.692Z,76.89
2023-05-05T21:28:30.059Z,76.16
2023-05-05T21:31:20.665Z,75.81
2023-05-05T21:33:51.312Z,75.44
2023-05-05T21:36:22.110Z,76.84
2023-05-05T21:38:57.763Z,75.09
2023-05-05T21:41:29.605Z,74.84
2023-05-05T21:44:00.598Z,74.49
2023-05-05T21:46:31.236Z,74.09
2023-05-05T21:49:01.768Z,73.97
2023-05-05T21:51:32.300Z,73.50
2023-05-05T21:54:07.461Z,73.65
2023-05-05T21:56:38.797Z,73.23
2023-05-05T21:59:09.530Z,73.81
2023-05-05T22:01:40.292Z,73.67
2023-05-05T22:04:11.294Z,72.57
2023-05-05T22:06:41.857Z,70.74
2023-05-05T22:09:13.983Z,70.35
2023-05-05T22:11:44.524Z,69.20
2023-05-05T22:14:15.116Z,69.27
2023-05-05T22:16:46.121Z,68.38
2023-05-05T22:19:16.878Z,65.73
2023-05-05T22:21:47.338Z,66.10
2023-05-05T22:24:19.407Z,66.42
2023-05-05T22:26:49.951Z,63.70
2023-05-05T22:29:23.128Z,64.88
2023-05-05T22:31:53.822Z,61.78
2023-05-05T22:34:24.733Z,63.17
2023-05-05T22:36:55.260Z,62.82
2023-05-05T22:39:27.872Z,62.94
2023-05-05T22:41:58.362Z,62.91
2023-05-05T22:44:28.953Z,59.55
2023-05-05T22:46:59.656Z,60.09
2023-05-05T22:49:30.583Z,58.67
2023-05-05T22:52:01.215Z,59.27
2023-05-05T22:54:33.678Z,59.37
2023-05-05T22:57:04.538Z,59.55
2023-05-05T22:59:35.108Z,56.75
2023-05-05T23:02:05.713Z,55.38
2023-05-05T23:04:36.256Z,55.79
2023-05-05T23:07:06.816Z,55.58
2023-05-05T23:09:38.847Z,57.42
2023-05-05T23:12:09.673Z,56.49
2023-05-05T23:14:40.126Z,56.45
2023-05-05T23:17:10.743Z,54.13
2023-05-05T23:19:41.183Z,51.37
2023-05-05T23:22:11.597Z,51.98
2023-05-05T23:24:43.768Z,53.54
2023-05-05T23:27:15.239Z,53.76
2023-05-05T23:29:46.202Z,52.90
2023-05-05T23:32:17.995Z,53.48
2023-05-05T23:34:48.930Z,52.65
2023-05-05T23:37:19.474Z,52.00
2023-05-05T23:39:51.618Z,51.74
2023-05-05T23:42:22.254Z,51.05
2023-05-05T23:44:53.476Z,48.34
2023-05-05T23:47:24.081Z,48.79
2023-05-05T23:49:54.544Z,50.48
2023-05-05T23:52:26.280Z,49.20
2023-05-05T23:54:58.613Z,48.57
2023-05-05T23:57:29.795Z,46.79
